Ernest Shackleton — ZDLS1 — position and weather

sailwx.info

Track history (hours):
 
Tides and Currents Weather Stations Pressure Air Temp Water Temp Dewpoint Dewpoint Depression Visibility Wind Speed Wind Dir Waves Ship Positions

Oceanographic research ship Ernest Shackleton (UK/Norway)

Detailed information on ship capabilities available from University of Delaware's Ocean Information Center and ARCUS's ALIAS (Arctic Logistics Information and Support) project.

Last reported at 2015-May-29 01:00 UTC. Time now 2015-May-29 04:05 UTC.
Position N 57°24' E 010°30'.

Length 80 m; beam 17 m; draft 7.4 m.

Type: Ship. MMSI: 740357000.

AWS

Barometer 1005.6 mb
Air temperature 6.4 ° C
Dewpoint 3.9 ° C

Date/timePositionNaut miles runAvg speedWind from/ knotsBaromVisibWave heightAir tempDewpointWater temp
2015-May-29 01:00N 57°24' E 010°30'0 0.0 1005.6 6.4 3.9
2015-May-28 22:00N 57°24' E 010°30'0 0.0 1005.1 7.1 4.6
2015-May-28 21:00N 57°24' E 010°30'0 0.0 1004.9 7.6 4.6
2015-May-28 17:00N 57°24' E 010°30'0 0.0 1003.3 10.1 5.3
2015-May-28 16:00N 57°24' E 010°30'0 0.0 1003.1 10.0 6.1
2015-May-28 06:00N 57°24' E 010°30'0 0.0 1006.2 10.4 6.9
2015-May-28 05:00N 57°24' E 010°30'0 0.0 1007.3 10.0 6.4
2015-May-28 04:00N 57°24' E 010°30'0 0.0 1008.5 9.2 5.1
2015-May-28 00:00N 57°24' E 010°30'3 0.4 1012.4 7.4 4.4
2015-May-27 17:05N 57°26' E 010°33'330.9
2015-May-27 17:00N 57°24' E 010°30'3 4.2 1014.3 11.8 4.1
2015-May-27 16:20N 57°26' E 010°33'3 8.1
2015-May-27 16:00N 57°24' E 010°30'3 4.5 1014.3 12.6 4.6
2015-May-27 15:23N 57°26' E 010°33'3 0.3
2015-May-27 06:00N 57°24' E 010°30'0 0.0 1013.5 10.3 3.7
2015-May-27 04:00N 57°24' E 010°30'0 0.0 1013.1 8.2 4.8
2015-May-27 03:00N 57°24' E 010°30'0 0.0 1012.7 7.7 4.9
2015-May-27 00:00N 57°24' E 010°30'0 0.0 1012.5 8.1 4.9
2015-May-26 20:00N 57°24' E 010°30'0 0.0 1012.2 9.2 5.0
2015-May-26 19:00N 57°24' E 010°30'3 3.4 1012.0 10.2 5.2
2015-May-26 18:11N 57°26' E 010°33'3 0.3
2015-May-26 08:00N 57°24' E 010°30'0 0.0 1009.6 11.2 4.4
2015-May-26 07:00N 57°24' E 010°30'0 0.0 1009.5 10.3 4.6
2015-May-26 06:00N 57°24' E 010°30'0 0.0 1009.1 9.7 4.8
2015-May-26 05:00N 57°24' E 010°30'0 0.0 1009.1 9.1 5.5
2015-May-26 00:00N 57°24' E 010°30'0 0.0 1010.0 7.1 4.5
2015-May-25 23:00N 57°24' E 010°30'0 0.0 1010.3 7.3 4.6
2015-May-25 21:00N 57°24' E 010°30'0 0.0 1010.5 8.0 4.3
2015-May-25 20:00N 57°24' E 010°30'0 0.0 1010.7 8.6 4.0
2015-May-25 17:00N 57°24' E 010°30'0 0.0 1010.5 11.0 3.9
2015-May-25 13:00N 57°24' E 010°30'0 0.0 1010.9 11.3 4.8
2015-May-25 10:00N 57°24' E 010°30'0 0.0 1011.1 11.2 3.4
2015-May-25 07:00N 57°24' E 010°30'0 0.0 1011.2 9.9 4.1
2015-May-25 06:00N 57°24' E 010°30'0 0.0 1011.1 8.9 4.9
2015-May-25 05:00N 57°24' E 010°30'0 0.0 1011.0 8.5 4.9
2015-May-25 04:00N 57°24' E 010°30'6 8.6 1011.0 7.4 4.7
2015-May-25 03:14N 57°25' E 010°42'520.5
2015-May-25 03:00N 57°30' E 010°42'12 7.2 1010.6 7.8 5.4
2015-May-25 01:24N 57°41' E 010°45'6 7.5
2015-May-25 00:33N 57°48' E 010°42'711.8
2015-May-25 00:00N 57°48' E 010°30'3 7.0 1010.3 8.7 5.9
2015-May-24 23:32N 57°49' E 010°24'712.1
2015-May-24 23:00N 57°48' E 010°12'1111.3 1010.6 9.2 7.0
2015-May-24 22:00N 57°42' E 009°54'9 8.8 1011.0 8.4 7.6
2015-May-24 21:00N 57°36' E 009°42'5110.2 1011.4 8.8 8.1
2015-May-24 16:00N 57°12' E 008°18'9 8.9 1013.4 8.4 7.0
2015-May-24 15:00N 57°06' E 008°06'2010.1 1014.1 8.1 6.6
2015-May-24 13:00N 56°54' E 007°36'1211.5 1015.2 8.3 6.3
2015-May-24 12:00N 56°48' E 007°18'9 8.9 1015.8 8.5 6.1
2015-May-24 11:00N 56°42' E 007°06'2010.2 1016.2 8.6 6.1
2015-May-24 09:00N 56°30' E 006°36'1413.7 1016.9 8.5 5.9
2015-May-24 08:00N 56°18' E 006°24'39 9.6 1017.6 8.6 6.0
2015-May-24 04:00N 55°54' E 005°30'2512.3 1019.1 8.1 5.1
2015-May-24 02:00N 55°36' E 005°00'7813.0 1020.4 7.9 5.0
2015-May-23 20:00N 54°48' E 003°12'2512.5 1024.0 8.6 4.3
2015-May-23 18:00N 54°30' E 002°42'3311.1 1024.7 9.4 4.2
2015-May-23 15:00N 54°12' E 001°54'1212.1 1026.1 10.8 3.9
2015-May-23 14:00N 54°06' E 001°36'2911.7 1026.5 10.8 3.7
2015-May-23 11:28N 53°51' E 000°53'1213.2
2015-May-23 10:33N 53°44' E 000°36'1119.3
2015-May-23 10:00N 53°36' E 000°24'3 6.4 1026.7 9.6 6.3
2015-May-23 09:33N 53°36' E 000°19'1010.2
2015-May-23 08:33N 53°35' E 000°02'5 8.7
2015-May-23 08:00N 53°36' W 000°06'2 3.6 1026.7 10.2 6.3
2015-May-23 07:32N 53°35' W 000°04'0 0.0
2015-May-23 06:32N 53°35' W 000°04'2 3.0
2015-May-23 06:00N 53°36' W 000°06'2 3.6 1025.9 9.7 7.1
2015-May-23 05:32N 53°35' W 000°04'2 3.0
2015-May-23 05:00N 53°36' W 000°06'2 3.6 1025.4 9.7 7.2
2015-May-23 04:32N 53°35' W 000°04'0 0.0
2015-May-23 03:32N 53°35' W 000°04'2 3.0
2015-May-23 03:00N 53°36' W 000°06'2 3.6 1024.8 10.0 7.2
2015-May-23 02:32N 53°35' W 000°04'2 3.0
2015-May-23 02:00N 53°36' W 000°06'2 3.6 1024.9 10.2 7.8
2015-May-23 01:32N 53°35' W 000°04'2 3.0
2015-May-23 01:00N 53°36' W 000°06'2 3.6 1024.7 9.9 7.9
2015-May-23 00:32N 53°35' W 000°04'0 0.0
2015-May-22 23:32N 53°35' W 000°04'0 0.0
2015-May-22 22:32N 53°35' W 000°04'2 3.0
2015-May-22 22:00N 53°36' W 000°06'2 3.6 1023.2 13.6 9.7
2015-May-22 21:32N 53°35' W 000°04'0 0.0
2015-May-22 20:32N 53°35' W 000°04'0 0.0
2015-May-22 19:32N 53°35' W 000°04'0 0.0
2015-May-22 18:32N 53°35' W 000°04'2 3.0
2015-May-22 18:00N 53°36' W 000°06'2 3.6 1022.0 17.210.4
2015-May-22 17:32N 53°35' W 000°04'0 0.0
2015-May-22 16:32N 53°35' W 000°04'0 0.0
2015-May-22 15:32N 53°35' W 000°04'0 0.0
2015-May-22 14:32N 53°35' W 000°04'2 3.0
2015-May-22 14:00N 53°36' W 000°06'2 3.6 1022.0 19.8 9.9
2015-May-22 13:32N 53°35' W 000°04'0 0.0
2015-May-22 12:32N 53°35' W 000°04'2 3.0
2015-May-22 12:00N 53°36' W 000°06'2 3.6 1022.7 18.110.4
2015-May-22 11:32N 53°35' W 000°04'2 3.0
2015-May-22 11:00N 53°36' W 000°06'2 3.6 1023.1 16.7 9.9
2015-May-22 10:32N 53°35' W 000°04'2 3.0
2015-May-22 10:00N 53°36' W 000°06'2 3.6 1023.5 15.9 9.7
2015-May-22 09:32N 53°35' W 000°04'2 3.0
2015-May-22 09:00N 53°36' W 000°06'2 3.6 1023.6 14.3 8.9
2015-May-22 08:32N 53°35' W 000°04'2 3.0
2015-May-22 08:00N 53°36' W 000°06'2 3.6 1023.7 13.1 8.3
2015-May-22 07:32N 53°35' W 000°04'0 0.0
2015-May-22 06:32N 53°35' W 000°04'2 3.0
2015-May-22 06:00N 53°36' W 000°06'2 3.6 1023.7 12.3 7.3
2015-May-22 05:32N 53°35' W 000°04'0 0.0
2015-May-22 04:32N 53°35' W 000°04'0 0.0
2015-May-22 03:29N 53°35' W 000°04'0 0.0
2015-May-22 02:32N 53°35' W 000°04'2 3.0
2015-May-22 02:00N 53°36' W 000°06'2 3.6 1024.6 12.0 5.9
2015-May-22 01:32N 53°35' W 000°04'0 0.0
2015-May-22 00:32N 53°35' W 000°04'0 0.0
2015-May-21 23:32N 53°35' W 000°04'2 3.0
2015-May-21 23:00N 53°36' W 000°06'2 3.6 1024.9 11.6 6.0
2015-May-21 22:32N 53°35' W 000°04'0 0.0
2015-May-21 21:32N 53°35' W 000°04'0 0.0
2015-May-21 20:32N 53°35' W 000°04'2 3.0
2015-May-21 20:00N 53°36' W 000°06'2 3.6 1024.6 13.2 5.0
2015-May-21 19:32N 53°35' W 000°04'0 0.0
2015-May-21 18:32N 53°35' W 000°04'2 3.0
2015-May-21 18:00N 53°36' W 000°06'2 3.6 1024.2 15.2 5.0
2015-May-21 17:32N 53°35' W 000°04'0 0.0
2015-May-21 16:32N 53°35' W 000°04'2 3.0
2015-May-21 16:00N 53°36' W 000°06'2 3.6 1023.8 16.6 3.7
2015-May-21 15:32N 53°35' W 000°04'2 3.0
2015-May-21 15:00N 53°36' W 000°06'2 3.6 1023.7 17.3 3.4
2015-May-21 14:32N 53°35' W 000°04'0 0.0
2015-May-21 13:32N 53°35' W 000°04'0 0.0
2015-May-21 12:32N 53°35' W 000°04'0 0.0
2015-May-21 11:32N 53°35' W 000°04'0 0.0
2015-May-21 10:32N 53°35' W 000°04'2 3.0
2015-May-21 10:00N 53°36' W 000°06'2 3.6 1023.8 14.4 6.2
2015-May-21 09:32N 53°35' W 000°04'0 0.0
2015-May-21 08:32N 53°35' W 000°04'0 0.0
2015-May-21 07:32N 53°35' W 000°04'2 3.0
2015-May-21 07:00N 53°36' W 000°06'2 3.6 1023.0 12.1 6.7
2015-May-21 06:32N 53°35' W 000°04'2 3.0
2015-May-21 06:00N 53°36' W 000°06'2 3.6 1022.9 10.1 6.3
2015-May-21 05:32N 53°35' W 000°04'2 3.0
2015-May-21 05:00N 53°36' W 000°06'2 3.6 1022.5 7.9 5.3
2015-May-21 04:32N 53°35' W 000°04'0 0.0
2015-May-21 03:32N 53°35' W 000°04'2 3.0
2015-May-21 03:00N 53°36' W 000°06'2 3.6 1022.1 7.4 4.9
2015-May-21 02:32N 53°35' W 000°04'2 3.0
2015-May-21 02:00N 53°36' W 000°06'2 3.6 1022.0 7.6 4.8
2015-May-21 01:32N 53°35' W 000°04'0 0.0
2015-May-21 00:32N 53°35' W 000°04'2 3.0
2015-May-21 00:00N 53°36' W 000°06'2 3.6 1021.4 8.4 4.0
2015-May-20 23:32N 53°35' W 000°04'0 0.0
2015-May-20 22:32N 53°35' W 000°04'0 0.0
2015-May-20 21:32N 53°35' W 000°04'2 3.0
2015-May-20 21:00N 53°36' W 000°06'2 3.6 1020.4 10.8 5.0
2015-May-20 20:32N 53°35' W 000°04'2 3.0
2015-May-20 20:00N 53°36' W 000°06'2 3.6 1019.6 10.4 3.5
2015-May-20 19:32N 53°35' W 000°04'1 0.5
2015-May-20 18:33N 53°35' W 000°04'3 4.5
2015-May-20 18:00N 53°36' E 000°00'2 5.7 1018.5 11.3 3.3
2015-May-20 17:33N 53°35' E 000°04'712.2
2015-May-20 17:00N 53°30' E 000°12'4 8.9 1018.1 11.6 2.6
2015-May-20 16:33N 53°33' E 000°16'8 7.8
2015-May-20 15:33N 53°32' E 000°29'4 7.8
2015-May-20 15:00N 53°30' E 000°36'9 9.3 1017.4 10.9 2.9
2015-May-20 14:00N 53°24' E 000°48'9 9.3 1016.9 9.9 4.6
2015-May-20 13:00N 53°18' E 001°00'7 3.5 1016.1 11.1 4.9
2015-May-20 11:00N 53°12' E 001°06'0 0.0 1014.7 10.5 4.9
2015-May-20 09:00N 53°12' E 001°06'4 1.8 1012.5 9.5 5.1
2015-May-20 07:00N 53°12' E 001°12'2 4.2 1010.2 8.6 4.8
2015-May-20 06:30N 53°11' E 001°14'8 8.3
2015-May-20 05:33N 53°05' E 001°23'611.0
2015-May-20 05:00N 53°00' E 001°30'2 3.8 1009.1 8.0 5.5
2015-May-20 04:33N 52°59' E 001°32'9 8.8
2015-May-20 03:33N 52°53' E 001°42'814.9
2015-May-20 03:00N 52°48' E 001°54'2 3.5 1008.4 7.0 4.1
2015-May-20 02:33N 52°47' E 001°53'5 8.0
2015-May-20 02:00N 52°42' E 001°54'511.0 1008.1 7.3 4.2
2015-May-20 01:33N 52°37' E 001°55'1111.4
2015-May-20 00:33N 52°26' E 001°54'814.1
2015-May-20 00:00N 52°18' E 001°54'2 4.3 1007.8 8.0 4.5
2015-May-19 23:31N 52°16' E 001°52'4 8.3
2015-May-19 23:00N 52°12' E 001°54'511.6 1007.7 8.1 5.0
2015-May-19 22:33N 52°07' E 001°51'9 9.1
2015-May-19 21:33N 51°58' E 001°49'9 9.1
2015-May-19 20:33N 51°49' E 001°49'10 9.6
2015-May-19 19:33N 51°40' E 001°52'1017.6
2015-May-19 19:00N 51°30' E 001°48'0 0.1 1007.4 8.8 3.9
2015-May-19 18:34N 51°30' E 001°48'9 8.9
2015-May-19 17:33N 51°21' E 001°44'916.7
2015-May-19 17:00N 51°12' E 001°42'2 3.5 1007.4 8.9 5.0
2015-May-19 16:34N 51°11' E 001°40'9 9.1
2015-May-19 15:33N 51°03' E 001°35'916.6
2015-May-19 15:00N 50°54' E 001°30'1414.2 1007.0 11.0 5.9
2015-May-19 14:00N 50°42' E 001°18'10 9.7 1007.4 11.7 5.4
2015-May-19 13:00N 50°36' E 001°06'2612.9 1007.5 11.3 5.2
2015-May-19 11:00N 50°24' E 000°30'5 9.0 1007.0 10.3 5.1
2015-May-19 10:27N 50°25' E 000°23'2315.9
2015-May-19 09:00N 50°18' W 000°12'1111.5 1007.2 10.4 4.5
2015-May-19 08:00N 50°18' W 000°30'2613.0 1007.3 10.4 5.6
2015-May-19 06:00N 50°06' W 001°06'8 7.7 1007.2 10.2 5.2
2015-May-19 05:00N 50°06' W 001°18'8 7.7 1007.0 10.1 5.4
2015-May-19 04:00N 50°06' W 001°30'10 9.8 1006.9 10.5 5.7
2015-May-19 03:00N 50°00' W 001°42'8 7.7 1007.3 9.8 5.5
2015-May-19 02:00N 50°00' W 001°54'4 3.9 1007.4 11.2 5.9
2015-May-19 01:00N 50°00' W 002°00'   1007.8 10.8 5.0
Track history (hours):
 
Tides and Currents Weather Stations Pressure Air Temp Water Temp Dewpoint Dewpoint Depression Visibility Wind Speed Wind Dir Waves Ship Positions

Oceanographic research ship Ernest Shackleton (UK/Norway)

Detailed information on ship capabilities available from University of Delaware's Ocean Information Center and ARCUS's ALIAS (Arctic Logistics Information and Support) project.

Last reported at 2015-May-29 01:00 UTC. Time now 2015-May-29 04:05 UTC.
Position N 57°24' E 010°30'.

Length 80 m; beam 17 m; draft 7.4 m.

Type: Ship. MMSI: 740357000.

AWS

Barometer 1005.6 mb
Air temperature 6.4 ° C
Dewpoint 3.9 ° C

Date/timePositionNaut miles runAvg speedWind from/ knotsBaromVisibWave heightAir tempDewpointWater temp
2015-May-29 01:00N 57°24' E 010°30'0 0.0 1005.6 6.4 3.9
2015-May-28 22:00N 57°24' E 010°30'0 0.0 1005.1 7.1 4.6
2015-May-28 21:00N 57°24' E 010°30'0 0.0 1004.9 7.6 4.6
2015-May-28 17:00N 57°24' E 010°30'0 0.0 1003.3 10.1 5.3
2015-May-28 16:00N 57°24' E 010°30'0 0.0 1003.1 10.0 6.1
2015-May-28 06:00N 57°24' E 010°30'0 0.0 1006.2 10.4 6.9
2015-May-28 05:00N 57°24' E 010°30'0 0.0 1007.3 10.0 6.4
2015-May-28 04:00N 57°24' E 010°30'0 0.0 1008.5 9.2 5.1
2015-May-28 00:00N 57°24' E 010°30'3 0.4 1012.4 7.4 4.4
2015-May-27 17:05N 57°26' E 010°33'330.9
2015-May-27 17:00N 57°24' E 010°30'3 4.2 1014.3 11.8 4.1
2015-May-27 16:20N 57°26' E 010°33'3 8.1
2015-May-27 16:00N 57°24' E 010°30'3 4.5 1014.3 12.6 4.6
2015-May-27 15:23N 57°26' E 010°33'3 0.3
2015-May-27 06:00N 57°24' E 010°30'0 0.0 1013.5 10.3 3.7
2015-May-27 04:00N 57°24' E 010°30'0 0.0 1013.1 8.2 4.8
2015-May-27 03:00N 57°24' E 010°30'0 0.0 1012.7 7.7 4.9
2015-May-27 00:00N 57°24' E 010°30'0 0.0 1012.5 8.1 4.9
2015-May-26 20:00N 57°24' E 010°30'0 0.0 1012.2 9.2 5.0
2015-May-26 19:00N 57°24' E 010°30'3 3.4 1012.0 10.2 5.2
2015-May-26 18:11N 57°26' E 010°33'3 0.3
2015-May-26 08:00N 57°24' E 010°30'0 0.0 1009.6 11.2 4.4
2015-May-26 07:00N 57°24' E 010°30'0 0.0 1009.5 10.3 4.6
2015-May-26 06:00N 57°24' E 010°30'0 0.0 1009.1 9.7 4.8
2015-May-26 05:00N 57°24' E 010°30'0 0.0 1009.1 9.1 5.5
2015-May-26 00:00N 57°24' E 010°30'0 0.0 1010.0 7.1 4.5
2015-May-25 23:00N 57°24' E 010°30'0 0.0 1010.3 7.3 4.6
2015-May-25 21:00N 57°24' E 010°30'0 0.0 1010.5 8.0 4.3
2015-May-25 20:00N 57°24' E 010°30'0 0.0 1010.7 8.6 4.0
2015-May-25 17:00N 57°24' E 010°30'0 0.0 1010.5 11.0 3.9
2015-May-25 13:00N 57°24' E 010°30'0 0.0 1010.9 11.3 4.8
2015-May-25 10:00N 57°24' E 010°30'0 0.0 1011.1 11.2 3.4
2015-May-25 07:00N 57°24' E 010°30'0 0.0 1011.2 9.9 4.1
2015-May-25 06:00N 57°24' E 010°30'0 0.0 1011.1 8.9 4.9
2015-May-25 05:00N 57°24' E 010°30'0 0.0 1011.0 8.5 4.9
2015-May-25 04:00N 57°24' E 010°30'6 8.6 1011.0 7.4 4.7
2015-May-25 03:14N 57°25' E 010°42'520.5
2015-May-25 03:00N 57°30' E 010°42'12 7.2 1010.6 7.8 5.4
2015-May-25 01:24N 57°41' E 010°45'6 7.5
2015-May-25 00:33N 57°48' E 010°42'711.8
2015-May-25 00:00N 57°48' E 010°30'3 7.0 1010.3 8.7 5.9
2015-May-24 23:32N 57°49' E 010°24'712.1
2015-May-24 23:00N 57°48' E 010°12'1111.3 1010.6 9.2 7.0
2015-May-24 22:00N 57°42' E 009°54'9 8.8 1011.0 8.4 7.6
2015-May-24 21:00N 57°36' E 009°42'5110.2 1011.4 8.8 8.1
2015-May-24 16:00N 57°12' E 008°18'9 8.9 1013.4 8.4 7.0
2015-May-24 15:00N 57°06' E 008°06'2010.1 1014.1 8.1 6.6
2015-May-24 13:00N 56°54' E 007°36'1211.5 1015.2 8.3 6.3
2015-May-24 12:00N 56°48' E 007°18'9 8.9 1015.8 8.5 6.1
2015-May-24 11:00N 56°42' E 007°06'2010.2 1016.2 8.6 6.1
2015-May-24 09:00N 56°30' E 006°36'1413.7 1016.9 8.5 5.9
2015-May-24 08:00N 56°18' E 006°24'39 9.6 1017.6 8.6 6.0
2015-May-24 04:00N 55°54' E 005°30'2512.3 1019.1 8.1 5.1
2015-May-24 02:00N 55°36' E 005°00'7813.0 1020.4 7.9 5.0
2015-May-23 20:00N 54°48' E 003°12'2512.5 1024.0 8.6 4.3
2015-May-23 18:00N 54°30' E 002°42'3311.1 1024.7 9.4 4.2
2015-May-23 15:00N 54°12' E 001°54'1212.1 1026.1 10.8 3.9
2015-May-23 14:00N 54°06' E 001°36'2911.7 1026.5 10.8 3.7
2015-May-23 11:28N 53°51' E 000°53'1213.2
2015-May-23 10:33N 53°44' E 000°36'1119.3
2015-May-23 10:00N 53°36' E 000°24'3 6.4 1026.7 9.6 6.3
2015-May-23 09:33N 53°36' E 000°19'1010.2
2015-May-23 08:33N 53°35' E 000°02'5 8.7
2015-May-23 08:00N 53°36' W 000°06'2 3.6 1026.7 10.2 6.3
2015-May-23 07:32N 53°35' W 000°04'0 0.0
2015-May-23 06:32N 53°35' W 000°04'2 3.0
2015-May-23 06:00N 53°36' W 000°06'2 3.6 1025.9 9.7 7.1
2015-May-23 05:32N 53°35' W 000°04'2 3.0
2015-May-23 05:00N 53°36' W 000°06'2 3.6 1025.4 9.7 7.2
2015-May-23 04:32N 53°35' W 000°04'0 0.0
2015-May-23 03:32N 53°35' W 000°04'2 3.0
2015-May-23 03:00N 53°36' W 000°06'2 3.6 1024.8 10.0 7.2
2015-May-23 02:32N 53°35' W 000°04'2 3.0
2015-May-23 02:00N 53°36' W 000°06'2 3.6 1024.9 10.2 7.8
2015-May-23 01:32N 53°35' W 000°04'2 3.0
2015-May-23 01:00N 53°36' W 000°06'2 3.6 1024.7 9.9 7.9
2015-May-23 00:32N 53°35' W 000°04'0 0.0
2015-May-22 23:32N 53°35' W 000°04'0 0.0
2015-May-22 22:32N 53°35' W 000°04'2 3.0
2015-May-22 22:00N 53°36' W 000°06'2 3.6 1023.2 13.6 9.7
2015-May-22 21:32N 53°35' W 000°04'0 0.0
2015-May-22 20:32N 53°35' W 000°04'0 0.0
2015-May-22 19:32N 53°35' W 000°04'0 0.0
2015-May-22 18:32N 53°35' W 000°04'2 3.0
2015-May-22 18:00N 53°36' W 000°06'2 3.6 1022.0 17.210.4
2015-May-22 17:32N 53°35' W 000°04'0 0.0
2015-May-22 16:32N 53°35' W 000°04'0 0.0
2015-May-22 15:32N 53°35' W 000°04'0 0.0
2015-May-22 14:32N 53°35' W 000°04'2 3.0
2015-May-22 14:00N 53°36' W 000°06'2 3.6 1022.0 19.8 9.9
2015-May-22 13:32N 53°35' W 000°04'0 0.0
2015-May-22 12:32N 53°35' W 000°04'2 3.0
2015-May-22 12:00N 53°36' W 000°06'2 3.6 1022.7 18.110.4
2015-May-22 11:32N 53°35' W 000°04'2 3.0
2015-May-22 11:00N 53°36' W 000°06'2 3.6 1023.1 16.7 9.9
2015-May-22 10:32N 53°35' W 000°04'2 3.0
2015-May-22 10:00N 53°36' W 000°06'2 3.6 1023.5 15.9 9.7
2015-May-22 09:32N 53°35' W 000°04'2 3.0
2015-May-22 09:00N 53°36' W 000°06'2 3.6 1023.6 14.3 8.9
2015-May-22 08:32N 53°35' W 000°04'2 3.0
2015-May-22 08:00N 53°36' W 000°06'2 3.6 1023.7 13.1 8.3
2015-May-22 07:32N 53°35' W 000°04'0 0.0
2015-May-22 06:32N 53°35' W 000°04'2 3.0
2015-May-22 06:00N 53°36' W 000°06'2 3.6 1023.7 12.3 7.3
2015-May-22 05:32N 53°35' W 000°04'0 0.0
2015-May-22 04:32N 53°35' W 000°04'0 0.0
2015-May-22 03:29N 53°35' W 000°04'0 0.0
2015-May-22 02:32N 53°35' W 000°04'2 3.0
2015-May-22 02:00N 53°36' W 000°06'2 3.6 1024.6 12.0 5.9
2015-May-22 01:32N 53°35' W 000°04'0 0.0
2015-May-22 00:32N 53°35' W 000°04'0 0.0
2015-May-21 23:32N 53°35' W 000°04'2 3.0
2015-May-21 23:00N 53°36' W 000°06'2 3.6 1024.9 11.6 6.0
2015-May-21 22:32N 53°35' W 000°04'0 0.0
2015-May-21 21:32N 53°35' W 000°04'0 0.0
2015-May-21 20:32N 53°35' W 000°04'2 3.0
2015-May-21 20:00N 53°36' W 000°06'2 3.6 1024.6 13.2 5.0
2015-May-21 19:32N 53°35' W 000°04'0 0.0
2015-May-21 18:32N 53°35' W 000°04'2 3.0
2015-May-21 18:00N 53°36' W 000°06'2 3.6 1024.2 15.2 5.0
2015-May-21 17:32N 53°35' W 000°04'0 0.0
2015-May-21 16:32N 53°35' W 000°04'2 3.0
2015-May-21 16:00N 53°36' W 000°06'2 3.6 1023.8 16.6 3.7
2015-May-21 15:32N 53°35' W 000°04'2 3.0
2015-May-21 15:00N 53°36' W 000°06'2 3.6 1023.7 17.3 3.4
2015-May-21 14:32N 53°35' W 000°04'0 0.0
2015-May-21 13:32N 53°35' W 000°04'0 0.0
2015-May-21 12:32N 53°35' W 000°04'0 0.0
2015-May-21 11:32N 53°35' W 000°04'0 0.0
2015-May-21 10:32N 53°35' W 000°04'2 3.0
2015-May-21 10:00N 53°36' W 000°06'2 3.6 1023.8 14.4 6.2
2015-May-21 09:32N 53°35' W 000°04'0 0.0
2015-May-21 08:32N 53°35' W 000°04'0 0.0
2015-May-21 07:32N 53°35' W 000°04'2 3.0
2015-May-21 07:00N 53°36' W 000°06'2 3.6 1023.0 12.1 6.7
2015-May-21 06:32N 53°35' W 000°04'2 3.0
2015-May-21 06:00N 53°36' W 000°06'2 3.6 1022.9 10.1 6.3
2015-May-21 05:32N 53°35' W 000°04'2 3.0
2015-May-21 05:00N 53°36' W 000°06'2 3.6 1022.5 7.9 5.3
2015-May-21 04:32N 53°35' W 000°04'0 0.0
2015-May-21 03:32N 53°35' W 000°04'2 3.0
2015-May-21 03:00N 53°36' W 000°06'2 3.6 1022.1 7.4 4.9
2015-May-21 02:32N 53°35' W 000°04'2 3.0
2015-May-21 02:00N 53°36' W 000°06'2 3.6 1022.0 7.6 4.8
2015-May-21 01:32N 53°35' W 000°04'0 0.0
2015-May-21 00:32N 53°35' W 000°04'2 3.0
2015-May-21 00:00N 53°36' W 000°06'2 3.6 1021.4 8.4 4.0
2015-May-20 23:32N 53°35' W 000°04'0 0.0
2015-May-20 22:32N 53°35' W 000°04'0 0.0
2015-May-20 21:32N 53°35' W 000°04'2 3.0
2015-May-20 21:00N 53°36' W 000°06'2 3.6 1020.4 10.8 5.0
2015-May-20 20:32N 53°35' W 000°04'2 3.0
2015-May-20 20:00N 53°36' W 000°06'2 3.6 1019.6 10.4 3.5
2015-May-20 19:32N 53°35' W 000°04'1 0.5
2015-May-20 18:33N 53°35' W 000°04'3 4.5
2015-May-20 18:00N 53°36' E 000°00'2 5.7 1018.5 11.3 3.3
2015-May-20 17:33N 53°35' E 000°04'712.2
2015-May-20 17:00N 53°30' E 000°12'4 8.9 1018.1 11.6 2.6
2015-May-20 16:33N 53°33' E 000°16'8 7.8
2015-May-20 15:33N 53°32' E 000°29'4 7.8
2015-May-20 15:00N 53°30' E 000°36'9 9.3 1017.4 10.9 2.9
2015-May-20 14:00N 53°24' E 000°48'9 9.3 1016.9 9.9 4.6
2015-May-20 13:00N 53°18' E 001°00'7 3.5 1016.1 11.1 4.9
2015-May-20 11:00N 53°12' E 001°06'0 0.0 1014.7 10.5 4.9
2015-May-20 09:00N 53°12' E 001°06'4 1.8 1012.5 9.5 5.1
2015-May-20 07:00N 53°12' E 001°12'2 4.2 1010.2 8.6 4.8
2015-May-20 06:30N 53°11' E 001°14'8 8.3
2015-May-20 05:33N 53°05' E 001°23'611.0
2015-May-20 05:00N 53°00' E 001°30'2 3.8 1009.1 8.0 5.5
2015-May-20 04:33N 52°59' E 001°32'9 8.8
2015-May-20 03:33N 52°53' E 001°42'814.9
2015-May-20 03:00N 52°48' E 001°54'2 3.5 1008.4 7.0 4.1
2015-May-20 02:33N 52°47' E 001°53'5 8.0
2015-May-20 02:00N 52°42' E 001°54'511.0 1008.1 7.3 4.2
2015-May-20 01:33N 52°37' E 001°55'1111.4
2015-May-20 00:33N 52°26' E 001°54'814.1
2015-May-20 00:00N 52°18' E 001°54'2 4.3 1007.8 8.0 4.5
2015-May-19 23:31N 52°16' E 001°52'4 8.3
2015-May-19 23:00N 52°12' E 001°54'511.6 1007.7 8.1 5.0
2015-May-19 22:33N 52°07' E 001°51'9 9.1
2015-May-19 21:33N 51°58' E 001°49'9 9.1
2015-May-19 20:33N 51°49' E 001°49'10 9.6
2015-May-19 19:33N 51°40' E 001°52'1017.6
2015-May-19 19:00N 51°30' E 001°48'0 0.1 1007.4 8.8 3.9
2015-May-19 18:34N 51°30' E 001°48'9 8.9
2015-May-19 17:33N 51°21' E 001°44'916.7
2015-May-19 17:00N 51°12' E 001°42'2 3.5 1007.4 8.9 5.0
2015-May-19 16:34N 51°11' E 001°40'9 9.1
2015-May-19 15:33N 51°03' E 001°35'916.6
2015-May-19 15:00N 50°54' E 001°30'1414.2 1007.0 11.0 5.9
2015-May-19 14:00N 50°42' E 001°18'10 9.7 1007.4 11.7 5.4
2015-May-19 13:00N 50°36' E 001°06'2612.9 1007.5 11.3 5.2
2015-May-19 11:00N 50°24' E 000°30'5 9.0 1007.0 10.3 5.1
2015-May-19 10:27N 50°25' E 000°23'2315.9
2015-May-19 09:00N 50°18' W 000°12'1111.5 1007.2 10.4 4.5
2015-May-19 08:00N 50°18' W 000°30'2613.0 1007.3 10.4 5.6
2015-May-19 06:00N 50°06' W 001°06'8 7.7 1007.2 10.2 5.2
2015-May-19 05:00N 50°06' W 001°18'8 7.7 1007.0 10.1 5.4
2015-May-19 04:00N 50°06' W 001°30'10 9.8 1006.9 10.5 5.7
2015-May-19 03:00N 50°00' W 001°42'8 7.7 1007.3 9.8 5.5
2015-May-19 02:00N 50°00' W 001°54'4 3.9 1007.4 11.2 5.9
2015-May-19 01:00N 50°00' W 002°00'   1007.8 10.8 5.0

Dump ship's entire track history